Time,TemperatureF,DewpointF,PressureIn,WindDirection,WindDirectionDegrees,WindSpeedMPH,WindSpeedGustMPH,Humidity,HourlyPrecipIn,Conditions,Clouds,dailyrainin,SoftwareType,DateUTC
2013-02-04 00:10:00,10.1,5.2,-100.00,North,-999,-999.0,-999.0,80,-99.99,,,-99.99,,2013-02-04 05:10:00,
2013-02-04 00:20:00,-1.0,0.0,-100.00,North,-999,-999.0,-999.0,0,-99.99,,,-99.99,,2013-02-04 05:20:00,
2013-02-04 00:30:00,9.9,5.0,-100.00,North,-999,-999.0,-999.0,80,-99.99,,,-99.99,,2013-02-04 05:30:00,
2013-02-04 00:40:00,-1.0,0.0,-100.00,North,-999,-999.0,-999.0,0,-99.99,,,-99.99,,2013-02-04 05:40:00,
2013-02-04 00:50:00,9.9,5.2,-100.00,North,-999,-999.0,-999.0,81,-99.99,,,-99.99,,2013-02-04 05:50:00,
2013-02-04 01:01:00,9.5,4.8,-100.00,North,-999,-999.0,-999.0,81,-99.99,,,-99.99,,2013-02-04 06:01:00,
2013-02-04 01:10:00,10.1,5.5,-100.00,North,-999,-999.0,-999.0,81,-99.99,,,-99.99,,2013-02-04 06:10:00,
2013-02-04 01:20:00,9.4,4.8,-100.00,North,-999,-999.0,-999.0,81,-99.99,,,-99.99,,2013-02-04 06:20:00,
2013-02-04 01:30:00,9.9,5.2,-100.00,North,-999,-999.0,-999.0,81,-99.99,,,-99.99,,2013-02-04 06:30:00,
2013-02-04 01:40:00,10.6,5.9,-100.00,North,-999,-999.0,-999.0,81,-99.99,,,-99.99,,2013-02-04 06:40:00,
2013-02-04 01:50:00,10.6,5.9,-100.00,North,-999,-999.0,-999.0,81,-99.99,,,-99.99,,2013-02-04 06:50:00,
2013-02-04 02:00:00,10.6,5.9,-100.00,North,-999,-999.0,-999.0,81,-99.99,,,-99.99,,2013-02-04 07:00:00,
2013-02-04 02:10:00,11.0,6.3,-100.00,North,-999,-999.0,-999.0,81,-99.99,,,-99.99,,2013-02-04 07:10:00,
2013-02-04 02:20:00,10.1,5.5,-100.00,North,-999,-999.0,-999.0,81,-99.99,,,-99.99,,2013-02-04 07:20:00,
2013-02-04 02:30:00,9.4,4.8,-100.00,North,-999,-999.0,-999.0,81,-99.99,,,-99.99,,2013-02-04 07:30:00,
2013-02-04 02:40:00,9.4,4.5,-100.00,North,-999,-999.0,-999.0,80,-99.99,,,-99.99,,2013-02-04 07:40:00,
2013-02-04 02:50:00,9.5,4.8,-100.00,North,-999,-999.0,-999.0,81,-99.99,,,-99.99,,2013-02-04 07:50:00,
2013-02-04 03:01:00,9.7,5.0,-100.00,North,-999,-999.0,-999.0,81,-99.99,,,-99.99,,2013-02-04 08:01:00,
2013-02-04 03:10:00,10.1,5.5,-100.00,North,-999,-999.0,-999.0,81,-99.99,,,-99.99,,2013-02-04 08:10:00,
2013-02-04 03:20:00,10.8,6.1,-100.00,North,-999,-999.0,-999.0,81,-99.99,,,-99.99,,2013-02-04 08:20:00,
2013-02-04 03:30:00,10.6,5.9,-100.00,North,-999,-999.0,-999.0,81,-99.99,,,-99.99,,2013-02-04 08:30:00,
2013-02-04 03:40:00,-1.0,0.0,-100.00,North,-999,-999.0,-999.0,0,-99.99,,,-99.99,,2013-02-04 08:40:00,
2013-02-04 03:51:00,-1.0,0.0,-100.00,North,-999,-999.0,-999.0,0,-99.99,,,-99.99,,2013-02-04 08:51:00,
2013-02-04 04:01:00,12.1,7.3,-100.00,North,-999,-999.0,-999.0,81,-99.99,,,-99.99,,2013-02-04 09:01:00,
2013-02-04 04:10:00,-1.0,0.0,-100.00,North,-999,-999.0,-999.0,0,-99.99,,,-99.99,,2013-02-04 09:10:00,
2013-02-04 04:20:00,-1.0,0.0,-100.00,North,-999,-999.0,-999.0,0,-99.99,,,-99.99,,2013-02-04 09:20:00,
2013-02-04 04:30:00,12.1,7.3,-100.00,North,-999,-999.0,-999.0,81,-99.99,,,-99.99,,2013-02-04 09:30:00,
2013-02-04 04:40:00,13.0,8.2,-100.00,North,-999,-999.0,-999.0,81,-99.99,,,-99.99,,2013-02-04 09:40:00,
2013-02-04 04:50:00,13.0,8.2,-100.00,North,-999,-999.0,-999.0,81,-99.99,,,-99.99,,2013-02-04 09:50:00,
2013-02-04 05:00:00,12.8,8.1,-100.00,North,-999,-999.0,-999.0,81,-99.99,,,-99.99,,2013-02-04 10:00:00,
2013-02-04 05:10:00,13.7,9.0,-100.00,North,-999,-999.0,-999.0,81,-99.99,,,-99.99,,2013-02-04 10:10:00,
2013-02-04 05:20:00,14.8,10.0,-100.00,North,-999,-999.0,-999.0,81,-99.99,,,-99.99,,2013-02-04 10:20:00,
2013-02-04 05:30:00,13.9,9.1,-100.00,North,-999,-999.0,-999.0,81,-99.99,,,-99.99,,2013-02-04 10:30:00,
2013-02-04 05:40:00,13.7,9.0,-100.00,North,-999,-999.0,-999.0,81,-99.99,,,-99.99,,2013-02-04 10:40:00,
2013-02-04 05:50:00,13.5,8.8,-100.00,North,-999,-999.0,-999.0,81,-99.99,,,-99.99,,2013-02-04 10:50:00,
2013-02-04 06:00:00,12.8,8.1,-100.00,North,-999,-999.0,-999.0,81,-99.99,,,-99.99,,2013-02-04 11:00:00,
2013-02-04 06:10:00,13.3,8.6,-100.00,North,-999,-999.0,-999.0,81,-99.99,,,-99.99,,2013-02-04 11:10:00,
2013-02-04 06:20:00,14.2,9.5,-100.00,North,-999,-999.0,-999.0,81,-99.99,,,-99.99,,2013-02-04 11:20:00,
2013-02-04 06:30:00,14.9,9.9,-100.00,North,-999,-999.0,-999.0,80,-99.99,,,-99.99,,2013-02-04 11:30:00,
2013-02-04 06:40:00,14.6,9.3,-100.00,North,-999,-999.0,-999.0,79,-99.99,,,-99.99,,2013-02-04 11:40:00,
2013-02-04 06:50:00,15.1,9.5,-100.00,North,-999,-999.0,-999.0,78,-99.99,,,-99.99,,2013-02-04 11:50:00,
2013-02-04 07:00:00,15.5,9.9,-100.00,North,-999,-999.0,-999.0,78,-99.99,,,-99.99,,2013-02-04 12:00:00,
2013-02-04 07:10:00,14.9,9.0,-100.00,North,-999,-999.0,-999.0,77,-99.99,,,-99.99,,2013-02-04 12:10:00,
2013-02-04 07:20:00,15.5,9.7,-100.00,North,-999,-999.0,-999.0,77,-99.99,,,-99.99,,2013-02-04 12:20:00,
2013-02-04 07:30:00,16.4,10.2,-100.00,North,-999,-999.0,-999.0,76,-99.99,,,-99.99,,2013-02-04 12:30:00,
2013-02-04 07:40:00,16.6,10.0,-100.00,North,-999,-999.0,-999.0,75,-99.99,,,-99.99,,2013-02-04 12:40:00,
2013-02-04 07:50:00,16.6,9.9,-100.00,North,-999,-999.0,-999.0,74,-99.99,,,-99.99,,2013-02-04 12:50:00,
2013-02-04 08:00:00,17.3,10.4,-100.00,North,-999,-999.0,-999.0,74,-99.99,,,-99.99,,2013-02-04 13:00:00,
2013-02-04 08:10:00,18.5,11.3,-100.00,North,-999,-999.0,-999.0,73,-99.99,,,-99.99,,2013-02-04 13:10:00,
2013-02-04 08:20:00,19.4,12.2,-100.00,North,-999,-999.0,-999.0,73,-99.99,,,-99.99,,2013-02-04 13:20:00,
2013-02-04 08:30:00,20.3,12.7,-100.00,North,-999,-999.0,-999.0,72,-99.99,,,-99.99,,2013-02-04 13:30:00,
2013-02-04 08:40:00,20.9,12.7,-100.00,North,-999,-999.0,-999.0,70,-99.99,,,-99.99,,2013-02-04 13:40:00,
2013-02-04 08:50:00,21.1,12.6,-100.00,North,-999,-999.0,-999.0,69,-99.99,,,-99.99,,2013-02-04 13:50:00,
2013-02-04 09:00:00,21.8,12.6,-100.00,North,-999,-999.0,-999.0,67,-99.99,,,-99.99,,2013-02-04 14:00:00,
2013-02-04 09:10:00,22.7,12.7,-100.00,North,-999,-999.0,-999.0,65,-99.99,,,-99.99,,2013-02-04 14:10:00,
2013-02-04 09:20:00,23.2,12.9,-100.00,North,-999,-999.0,-999.0,64,-99.99,,,-99.99,,2013-02-04 14:20:00,
2013-02-04 09:30:00,23.2,12.6,-100.00,North,-999,-999.0,-999.0,63,-99.99,,,-99.99,,2013-02-04 14:30:00,
2013-02-04 09:40:00,23.6,12.6,-100.00,North,-999,-999.0,-999.0,62,-99.99,,,-99.99,,2013-02-04 14:40:00,
2013-02-04 09:50:00,25.2,13.3,-100.00,North,-999,-999.0,-999.0,60,-99.99,,,-99.99,,2013-02-04 14:50:00,
2013-02-04 10:00:00,24.7,12.0,-100.00,North,-999,-999.0,-999.0,58,-99.99,,,-99.99,,2013-02-04 15:00:00,
2013-02-04 10:10:00,25.4,12.4,-100.00,North,-999,-999.0,-999.0,57,-99.99,,,-99.99,,2013-02-04 15:10:00,
2013-02-04 10:20:00,27.5,13.8,-100.00,North,-999,-999.0,-999.0,56,-99.99,,,-99.99,,2013-02-04 15:20:00,
2013-02-04 10:30:00,24.1,10.2,-100.00,North,-999,-999.0,-999.0,55,-99.99,,,-99.99,,2013-02-04 15:30:00,
2013-02-04 10:40:00,24.7,11.7,-100.00,North,-999,-999.0,-999.0,57,-99.99,,,-99.99,,2013-02-04 15:40:00,
2013-02-04 10:50:00,25.4,11.1,-100.00,North,-999,-999.0,-999.0,54,-99.99,,,-99.99,,2013-02-04 15:50:00,
2013-02-04 11:00:00,25.6,11.7,-100.00,North,-999,-999.0,-999.0,55,-99.99,,,-99.99,,2013-02-04 16:00:00,
2013-02-04 11:10:00,25.9,12.0,-100.00,North,-999,-999.0,-999.0,55,-99.99,,,-99.99,,2013-02-04 16:10:00,
2013-02-04 11:20:00,26.8,12.7,-100.00,North,-999,-999.0,-999.0,55,-99.99,,,-99.99,,2013-02-04 16:20:00,
2013-02-04 11:30:00,25.9,11.1,-100.00,North,-999,-999.0,-999.0,53,-99.99,,,-99.99,,2013-02-04 16:30:00,
2013-02-04 11:40:00,27.9,12.6,-100.00,North,-999,-999.0,-999.0,52,-99.99,,,-99.99,,2013-02-04 16:40:00,
2013-02-04 11:50:00,28.3,12.9,-100.00,North,-999,-999.0,-999.0,52,-99.99,,,-99.99,,2013-02-04 16:50:00,
2013-02-04 12:00:00,25.7,10.6,-100.00,North,-999,-999.0,-999.0,52,-99.99,,,-99.99,,2013-02-04 17:00:00,
2013-02-04 12:10:00,25.9,11.1,-100.00,North,-999,-999.0,-999.0,53,-99.99,,,-99.99,,2013-02-04 17:10:00,
2013-02-04 12:20:00,24.5,9.5,-100.00,North,-999,-999.0,-999.0,52,-99.99,,,-99.99,,2013-02-04 17:20:00,
2013-02-04 12:30:00,24.8,10.0,-100.00,North,-999,-999.0,-999.0,53,-99.99,,,-99.99,,2013-02-04 17:30:00,
2013-02-04 12:40:00,26.8,11.1,-100.00,North,-999,-999.0,-999.0,51,-99.99,,,-99.99,,2013-02-04 17:40:00,
2013-02-04 12:50:00,25.6,9.5,-100.00,North,-999,-999.0,-999.0,50,-99.99,,,-99.99,,2013-02-04 17:50:00,
2013-02-04 13:00:00,24.8,9.3,-100.00,North,-999,-999.0,-999.0,51,-99.99,,,-99.99,,2013-02-04 18:00:00,
2013-02-04 13:10:00,24.7,8.8,-100.00,North,-999,-999.0,-999.0,50,-99.99,,,-99.99,,2013-02-04 18:10:00,
2013-02-04 13:20:00,27.4,11.7,-100.00,North,-999,-999.0,-999.0,51,-99.99,,,-99.99,,2013-02-04 18:20:00,
2013-02-04 13:30:00,30.6,13.8,-100.00,North,-999,-999.0,-999.0,49,-99.99,,,-99.99,,2013-02-04 18:30:00,
2013-02-04 13:40:00,27.4,9.0,-100.00,North,-999,-999.0,-999.0,45,-99.99,,,-99.99,,2013-02-04 18:40:00,
2013-02-04 13:50:00,29.7,12.0,-100.00,North,-999,-999.0,-999.0,47,-99.99,,,-99.99,,2013-02-04 18:50:00,
2013-02-04 14:00:00,27.0,9.5,-100.00,North,-999,-999.0,-999.0,47,-99.99,,,-99.99,,2013-02-04 19:00:00,
2013-02-04 14:10:00,26.5,9.5,-100.00,North,-999,-999.0,-999.0,48,-99.99,,,-99.99,,2013-02-04 19:10:00,
2013-02-04 14:20:00,24.8,8.4,-100.00,North,-999,-999.0,-999.0,49,-99.99,,,-99.99,,2013-02-04 19:20:00,
2013-02-04 14:30:00,26.1,10.0,-100.00,North,-999,-999.0,-999.0,50,-99.99,,,-99.99,,2013-02-04 19:30:00,
2013-02-04 14:40:00,25.2,8.8,-100.00,North,-999,-999.0,-999.0,49,-99.99,,,-99.99,,2013-02-04 19:40:00,
2013-02-04 14:50:00,24.1,8.2,-100.00,North,-999,-999.0,-999.0,50,-99.99,,,-99.99,,2013-02-04 19:50:00,
2013-02-04 15:00:00,24.5,9.0,-100.00,North,-999,-999.0,-999.0,51,-99.99,,,-99.99,,2013-02-04 20:00:00,
2013-02-04 15:10:00,23.9,8.4,-100.00,North,-999,-999.0,-999.0,51,-99.99,,,-99.99,,2013-02-04 20:10:00,
2013-02-04 15:20:00,23.2,8.2,-100.00,North,-999,-999.0,-999.0,52,-99.99,,,-99.99,,2013-02-04 20:20:00,
2013-02-04 15:30:00,22.7,8.2,-100.00,North,-999,-999.0,-999.0,53,-99.99,,,-99.99,,2013-02-04 20:30:00,
2013-02-04 15:40:00,22.9,8.8,-100.00,North,-999,-999.0,-999.0,54,-99.99,,,-99.99,,2013-02-04 20:40:00,
2013-02-04 15:50:00,22.7,8.6,-100.00,North,-999,-999.0,-999.0,54,-99.99,,,-99.99,,2013-02-04 20:50:00,
2013-02-04 16:00:00,22.5,8.8,-100.00,North,-999,-999.0,-999.0,55,-99.99,,,-99.99,,2013-02-04 21:00:00,
2013-02-04 16:10:00,22.9,9.1,-100.00,North,-999,-999.0,-999.0,55,-99.99,,,-99.99,,2013-02-04 21:10:00,
2013-02-04 16:20:00,22.7,9.0,-100.00,North,-999,-999.0,-999.0,55,-99.99,,,-99.99,,2013-02-04 21:20:00,
2013-02-04 16:30:00,22.3,8.6,-100.00,North,-999,-999.0,-999.0,55,-99.99,,,-99.99,,2013-02-04 21:30:00,
2013-02-04 16:40:00,21.8,7.7,-100.00,North,-999,-999.0,-999.0,54,-99.99,,,-99.99,,2013-02-04 21:40:00,
2013-02-04 16:50:00,21.6,7.5,-100.00,North,-999,-999.0,-999.0,54,-99.99,,,-99.99,,2013-02-04 21:50:00,
2013-02-04 17:00:00,21.4,7.3,-100.00,North,-999,-999.0,-999.0,54,-99.99,,,-99.99,,2013-02-04 22:00:00,
2013-02-04 17:10:00,20.5,6.1,-100.00,North,-999,-999.0,-999.0,53,-99.99,,,-99.99,,2013-02-04 22:10:00,
2013-02-04 17:20:00,20.7,6.3,-100.00,North,-999,-999.0,-999.0,53,-99.99,,,-99.99,,2013-02-04 22:20:00,
2013-02-04 17:30:00,19.4,6.3,-100.00,North,-999,-999.0,-999.0,56,-99.99,,,-99.99,,2013-02-04 22:30:00,
2013-02-04 17:40:00,20.0,7.2,-100.00,North,-999,-999.0,-999.0,57,-99.99,,,-99.99,,2013-02-04 22:40:00,
2013-02-04 17:50:00,19.1,7.2,-100.00,North,-999,-999.0,-999.0,59,-99.99,,,-99.99,,2013-02-04 22:50:00,
2013-02-04 18:00:00,18.7,6.8,-100.00,North,-999,-999.0,-999.0,59,-99.99,,,-99.99,,2013-02-04 23:00:00,
2013-02-04 18:10:00,18.4,6.8,-100.00,North,-999,-999.0,-999.0,60,-99.99,,,-99.99,,2013-02-04 23:10:00,
2013-02-04 18:20:00,18.5,7.0,-100.00,North,-999,-999.0,-999.0,60,-99.99,,,-99.99,,2013-02-04 23:20:00,
2013-02-04 18:30:00,17.8,7.0,-100.00,North,-999,-999.0,-999.0,62,-99.99,,,-99.99,,2013-02-04 23:30:00,
2013-02-04 18:40:00,17.6,6.8,-100.00,North,-999,-999.0,-999.0,62,-99.99,,,-99.99,,2013-02-04 23:40:00,
2013-02-04 18:50:00,17.1,6.6,-100.00,North,-999,-999.0,-999.0,63,-99.99,,,-99.99,,2013-02-04 23:50:00,
2013-02-04 19:00:00,17.1,7.0,-100.00,North,-999,-999.0,-999.0,64,-99.99,,,-99.99,,2013-02-05 00:00:00,
2013-02-04 19:10:00,17.1,7.0,-100.00,North,-999,-999.0,-999.0,64,-99.99,,,-99.99,,2013-02-05 00:10:00,
2013-02-04 19:20:00,16.7,6.6,-100.00,North,-999,-999.0,-999.0,64,-99.99,,,-99.99,,2013-02-05 00:20:00,
2013-02-04 19:30:00,15.3,5.7,-100.00,North,-999,-999.0,-999.0,65,-99.99,,,-99.99,,2013-02-05 00:30:00,
2013-02-04 19:40:00,16.0,6.3,-100.00,North,-999,-999.0,-999.0,65,-99.99,,,-99.99,,2013-02-05 00:40:00,
2013-02-04 19:50:00,15.3,6.1,-100.00,North,-999,-999.0,-999.0,66,-99.99,,,-99.99,,2013-02-05 00:50:00,
2013-02-04 20:00:00,16.2,6.8,-100.00,North,-999,-999.0,-999.0,66,-99.99,,,-99.99,,2013-02-05 01:00:00,
2013-02-04 20:10:00,15.5,6.4,-100.00,North,-999,-999.0,-999.0,67,-99.99,,,-99.99,,2013-02-05 01:10:00,
2013-02-04 20:20:00,14.8,6.3,-100.00,North,-999,-999.0,-999.0,68,-99.99,,,-99.99,,2013-02-05 01:20:00,
2013-02-04 20:30:00,13.7,5.4,-100.00,North,-999,-999.0,-999.0,69,-99.99,,,-99.99,,2013-02-05 01:30:00,
2013-02-04 20:40:00,13.3,5.7,-100.00,North,-999,-999.0,-999.0,71,-99.99,,,-99.99,,2013-02-05 01:40:00,
2013-02-04 20:50:00,13.1,5.5,-100.00,North,-999,-999.0,-999.0,71,-99.99,,,-99.99,,2013-02-05 01:50:00,
2013-02-04 21:00:00,12.8,4.8,-100.00,North,-999,-999.0,-999.0,70,-99.99,,,-99.99,,2013-02-05 02:00:00,
2013-02-04 21:10:00,13.5,6.3,-100.00,North,-999,-999.0,-999.0,72,-99.99,,,-99.99,,2013-02-05 02:10:00,
2013-02-04 21:20:00,14.4,6.8,-100.00,North,-999,-999.0,-999.0,71,-99.99,,,-99.99,,2013-02-05 02:20:00,
2013-02-04 21:30:00,14.4,6.4,-100.00,North,-999,-999.0,-999.0,70,-99.99,,,-99.99,,2013-02-05 02:30:00,
2013-02-04 21:40:00,14.0,6.1,-100.00,North,-999,-999.0,-999.0,70,-99.99,,,-99.99,,2013-02-05 02:40:00,
2013-02-04 21:50:00,13.3,5.7,-100.00,North,-999,-999.0,-999.0,71,-99.99,,,-99.99,,2013-02-05 02:50:00,
2013-02-04 22:00:00,13.3,6.1,-100.00,North,-999,-999.0,-999.0,72,-99.99,,,-99.99,,2013-02-05 03:00:00,
2013-02-04 22:10:00,14.8,7.2,-100.00,North,-999,-999.0,-999.0,71,-99.99,,,-99.99,,2013-02-05 03:10:00,
2013-02-04 22:20:00,14.8,7.5,-100.00,North,-999,-999.0,-999.0,72,-99.99,,,-99.99,,2013-02-05 03:20:00,
2013-02-04 22:30:00,14.6,7.0,-100.00,North,-999,-999.0,-999.0,71,-99.99,,,-99.99,,2013-02-05 03:30:00,
2013-02-04 22:40:00,15.1,7.3,-100.00,North,-999,-999.0,-999.0,71,-99.99,,,-99.99,,2013-02-05 03:40:00,
2013-02-04 22:50:00,15.5,7.5,-100.00,North,-999,-999.0,-999.0,70,-99.99,,,-99.99,,2013-02-05 03:50:00,
2013-02-04 23:00:00,15.7,7.3,-100.00,North,-999,-999.0,-999.0,69,-99.99,,,-99.99,,2013-02-05 04:00:00,
2013-02-04 23:10:00,15.8,7.7,-100.00,North,-999,-999.0,-999.0,70,-99.99,,,-99.99,,2013-02-05 04:10:00,
2013-02-04 23:20:00,16.0,7.7,-100.00,North,-999,-999.0,-999.0,69,-99.99,,,-99.99,,2013-02-05 04:20:00,
2013-02-04 23:30:00,16.2,7.9,-100.00,North,-999,-999.0,-999.0,69,-99.99,,,-99.99,,2013-02-05 04:30:00,
2013-02-04 23:40:00,16.4,8.1,-100.00,North,-999,-999.0,-999.0,69,-99.99,,,-99.99,,2013-02-05 04:40:00,
2013-02-04 23:50:00,16.6,7.9,-100.00,North,-999,-999.0,-999.0,68,-99.99,,,-99.99,,2013-02-05 04:50:00,